Time;durP1;ratioP1;P1;durP2;ratioP2;P2;SDS_P1;SDS_P2;PMS_P1;PMS_P2;Temp;Humidity;BMP_temperature;BMP_pressure;BME280_temperature;BME280_humidity;BME280_pressure;Samples;Min_cycle;Max_cycle;Signal;HPM_P1;HPM_P2
2021/10/06 00:02:10;;;;;;;17.02;8.53;;;;;;;13.24;53.84;100442.33;1741888;82;25621;-52
2021/10/06 00:04:38;;;;;;;19.50;8.60;;;;;;;13.23;53.96;100448.11;1681318;84;25529;-53
2021/10/06 00:07:06;;;;;;;22.98;8.98;;;;;;;13.20;54.05;100442.75;1731399;82;28358;-53
2021/10/06 00:09:32;;;;;;;16.27;9.35;;;;;;;13.20;53.93;100439.25;1731669;81;25489;-51
2021/10/06 00:11:59;;;;;;;29.85;7.97;;;;;;;13.19;54.06;100443.08;1731858;81;25484;-52
2021/10/06 00:14:26;;;;;;;17.55;8.70;;;;;;;13.16;54.17;100443.17;1731701;82;25658;-50
2021/10/06 00:16:53;;;;;;;16.97;8.00;;;;;;;13.15;54.17;100442.13;1731804;81;25467;-50
2021/10/06 00:19:21;;;;;;;18.45;8.53;;;;;;;13.12;54.21;100442.20;1731752;81;28181;-54
2021/10/06 00:21:48;;;;;;;20.92;8.48;;;;;;;13.11;54.34;100444.70;1731667;82;25621;-53
2021/10/06 00:24:14;;;;;;;16.40;8.28;;;;;;;13.09;54.41;100444.20;1731738;82;25686;-52
2021/10/06 00:26:41;;;;;;;17.32;8.55;;;;;;;13.05;54.39;100448.13;1731721;81;25784;-52
2021/10/06 00:29:08;;;;;;;20.30;8.70;;;;;;;13.01;54.50;100439.03;1731700;82;25533;-53
2021/10/06 00:31:35;;;;;;;18.98;8.40;;;;;;;12.98;54.54;100434.24;1731716;82;27377;-51
2021/10/06 00:34:04;;;;;;;11.95;8.85;;;;;;;12.95;54.69;100432.16;1731682;81;25641;-52
2021/10/06 00:36:31;;;;;;;20.55;8.63;;;;;;;12.92;54.74;100438.23;1681590;84;25713;-53
2021/10/06 00:38:57;;;;;;;23.18;9.33;;;;;;;12.88;54.85;100454.94;1741603;82;25729;-50
2021/10/06 00:41:24;;;;;;;20.50;8.00;;;;;;;12.86;54.82;100446.31;1741974;81;25649;-52
2021/10/06 00:43:50;;;;;;;21.10;8.50;;;;;;;12.84;55.09;100447.20;1733922;82;27348;-51
2021/10/06 00:46:17;;;;;;;18.45;8.60;;;;;;;12.81;55.10;100436.41;1731618;82;25878;-52
2021/10/06 00:48:44;;;;;;;24.27;8.68;;;;;;;12.78;55.20;100434.90;1731697;82;25691;-52
2021/10/06 00:51:13;;;;;;;17.90;8.78;;;;;;;12.76;55.47;100432.50;1731611;82;25647;-52
2021/10/06 00:53:41;;;;;;;16.12;7.67;;;;;;;12.74;55.43;100439.39;1689308;82;25522;-51
2021/10/06 00:56:07;;;;;;;15.68;9.05;;;;;;;12.73;55.76;100444.56;1731732;82;27997;-50
2021/10/06 00:58:35;;;;;;;27.90;8.95;;;;;;;12.73;55.65;100427.71;1731627;82;25551;-52
2021/10/06 01:01:01;;;;;;;17.55;7.92;;;;;;;12.75;55.62;100440.96;1731722;82;25469;-50
2021/10/06 01:03:28;;;;;;;18.40;8.45;;;;;;;12.74;55.65;100446.95;1731653;82;27794;-52
2021/10/06 01:05:56;;;;;;;23.38;8.18;;;;;;;12.75;55.61;100436.89;1731709;82;25466;-53
2021/10/06 01:08:23;;;;;;;16.40;8.60;;;;;;;12.76;55.67;100433.86;1688279;82;27397;-50
2021/10/06 01:10:52;;;;;;;15.63;8.13;;;;;;;12.79;55.78;100465.01;1731598;81;25459;-52
2021/10/06 01:13:18;;;;;;;16.15;8.00;;;;;;;12.79;55.66;100454.94;1731839;82;25460;-52
2021/10/06 01:15:45;;;;;;;19.62;9.03;;;;;;;12.80;55.78;100454.37;1731660;81;25681;-53
2021/10/06 01:18:12;;;;;;;15.63;8.48;;;;;;;12.80;55.79;100453.80;1731726;82;25706;-50
2021/10/06 01:20:38;;;;;;;17.42;8.80;;;;;;;12.81;55.79;100460.84;1731655;82;27364;-51
2021/10/06 01:23:05;;;;;;;18.45;8.18;;;;;;;12.81;55.80;100464.91;1687094;82;25717;-51
2021/10/06 01:25:32;;;;;;;15.32;7.67;;;;;;;12.83;55.80;100457.81;1689184;82;25464;-53
2021/10/06 01:27:59;;;;;;;14.20;8.25;;;;;;;12.83;55.71;100455.88;1731621;81;25721;-53
2021/10/06 01:30:26;;;;;;;25.15;8.18;;;;;;;12.83;55.77;100468.09;1731721;82;25626;-53
2021/10/06 01:32:52;;;;;;;21.12;8.70;;;;;;;12.83;55.79;100461.31;1731704;82;27322;-50
2021/10/06 01:35:19;;;;;;;18.95;8.23;;;;;;;12.82;55.86;100448.88;1731590;82;25508;-51
2021/10/06 01:37:46;;;;;;;18.12;8.65;;;;;;;12.83;55.82;100454.53;1731684;82;25634;-51
2021/10/06 01:40:22;;;;;;;16.50;7.72;;;;;;;12.81;55.83;100441.84;1731638;82;25771;-51
2021/10/06 01:42:52;;;;;;;16.12;8.93;;;;;;;12.82;55.84;100443.98;1731714;82;25651;-52
2021/10/06 01:45:26;;;;;;;21.02;9.40;;;;;;;12.80;55.87;100437.52;1731685;81;28119;-53
2021/10/06 01:47:54;;;;;;;15.35;9.18;;;;;;;12.79;55.86;100449.52;1731576;82;25717;-52
2021/10/06 01:50:25;;;;;;;17.30;8.08;;;;;;;12.76;55.88;100431.14;1731563;82;25773;-54
2021/10/06 01:52:54;;;;;;;18.65;8.63;;;;;;;12.76;55.85;100443.36;1731662;82;25627;-51
2021/10/06 01:55:28;;;;;;;12.93;8.90;;;;;;;12.77;55.91;100446.86;1731945;82;25376;-52
2021/10/06 01:57:57;;;;;;;15.65;7.85;;;;;;;12.79;55.90;100444.08;1730338;82;27302;-53
2021/10/06 02:00:25;;;;;;;18.40;8.45;;;;;;;12.77;55.93;100436.01;1731733;82;25532;-53
2021/10/06 02:02:53;;;;;;;16.62;8.28;;;;;;;12.75;55.95;100439.04;1731668;82;25624;-52
2021/10/06 02:05:20;;;;;;;14.35;8.18;;;;;;;12.74;56.06;100425.81;1689144;82;27688;-50
2021/10/06 02:07:47;;;;;;;16.27;8.18;;;;;;;12.74;55.94;100435.31;1690547;84;25684;-51
2021/10/06 02:10:14;;;;;;;17.12;7.92;;;;;;;12.72;55.98;100438.34;1733976;81;27453;-51
2021/10/06 02:12:40;;;;;;;17.48;7.67;;;;;;;12.72;55.90;100436.98;1731587;81;25538;-52
2021/10/06 02:15:09;;;;;;;20.50;9.75;;;;;;;12.73;56.16;100429.63;1731753;82;25515;-53
2021/10/06 02:17:35;;;;;;;17.65;7.67;;;;;;;12.72;55.98;100439.70;1731637;81;25689;-50
2021/10/06 02:20:03;;;;;;;16.52;7.60;;;;;;;12.71;56.06;100434.81;1689020;82;25450;-52
2021/10/06 02:22:30;;;;;;;20.15;7.92;;;;;;;12.70;56.03;100429.16;1731614;82;27408;-54
2021/10/06 02:24:57;;;;;;;16.40;7.85;;;;;;;12.70;56.09;100441.38;1690774;82;25519;-50
2021/10/06 02:27:24;;;;;;;11.85;7.95;;;;;;;12.71;56.02;100444.31;1731721;81;25512;-51
2021/10/06 02:29:51;;;;;;;16.40;8.38;;;;;;;12.71;56.04;100447.59;1731587;82;25612;-52
2021/10/06 02:32:18;;;;;;;14.60;7.92;;;;;;;12.68;56.14;100459.90;1731697;82;25491;-53
2021/10/06 02:34:44;;;;;;;14.65;7.65;;;;;;;12.67;56.13;100467.00;1731622;81;29542;-51
2021/10/06 02:37:11;;;;;;;15.58;7.78;;;;;;;12.69;56.20;100464.19;1731608;82;27154;-50
2021/10/06 02:39:37;;;;;;;14.87;8.25;;;;;;;12.68;56.14;100467.22;1731593;81;25503;-50
2021/10/06 02:42:04;;;;;;;12.93;7.95;;;;;;;12.69;56.14;100480.48;1731629;81;26576;-50
2021/10/06 02:44:30;;;;;;;12.35;7.70;;;;;;;12.68;56.15;100480.25;1699464;82;25695;-50
2021/10/06 02:46:57;;;;;;;16.62;8.13;;;;;;;12.67;56.17;100479.20;1731668;82;27975;-53
2021/10/06 02:49:23;;;;;;;19.25;8.00;;;;;;;12.67;56.24;100478.64;1731511;81;25681;-50
2021/10/06 02:51:50;;;;;;;19.12;8.40;;;;;;;12.67;56.23;100477.28;1704993;82;25931;-49
2021/10/06 02:54:16;;;;;;;13.90;8.20;;;;;;;12.68;56.29;100484.32;1715273;83;25669;-50
2021/10/06 02:56:43;;;;;;;17.75;7.55;;;;;;;12.67;56.34;100479.20;1687472;83;25471;-50
2021/10/06 02:59:09;;;;;;;12.80;7.72;;;;;;;12.67;56.29;100477.86;1688052;84;27202;-50
2021/10/06 03:01:36;;;;;;;20.57;9.13;;;;;;;12.67;56.34;100475.93;1736499;82;25476;-50
2021/10/06 03:04:02;;;;;;;16.07;7.35;;;;;;;12.67;56.40;100467.79;1689825;84;25670;-50
2021/10/06 03:06:29;;;;;;;25.23;9.03;;;;;;;12.68;56.35;100464.50;1718652;83;25715;-50
2021/10/06 03:08:56;;;;;;;13.03;7.35;;;;;;;12.67;56.40;100465.08;1718750;83;25618;-52
2021/10/06 03:11:23;;;;;;;16.70;7.17;;;;;;;12.66;56.38;100462.11;1696966;83;27348;-50
2021/10/06 03:13:50;;;;;;;15.15;7.78;;;;;;;12.67;56.45;100467.79;1718614;83;25531;-50
2021/10/06 03:16:17;;;;;;;16.70;7.47;;;;;;;12.67;56.57;100467.00;1697050;83;25491;-50
2021/10/06 03:18:44;;;;;;;11.63;7.60;;;;;;;12.67;56.56;100456.14;1718644;83;25706;-50
2021/10/06 03:21:11;;;;;;;12.95;7.83;;;;;;;12.67;56.53;100461.57;1718704;83;25490;-50
2021/10/06 03:23:38;;;;;;;17.57;8.10;;;;;;;12.68;56.56;100476.18;1718644;83;27337;-51
2021/10/06 03:26:05;;;;;;;19.77;7.12;;;;;;;12.68;56.55;100464.50;1718584;83;25692;-51
2021/10/06 03:28:31;;;;;;;16.17;8.25;;;;;;;12.66;56.59;100470.25;1718651;83;25689;-50
2021/10/06 03:30:59;;;;;;;15.40;7.70;;;;;;;12.66;56.62;100470.81;1718613;83;25672;-54
2021/10/06 03:33:26;;;;;;;14.00;7.22;;;;;;;12.66;56.70;100471.61;1718796;83;25520;-50
2021/10/06 03:35:52;;;;;;;14.87;7.78;;;;;;;12.66;56.78;100469.46;1718789;83;29452;-50
2021/10/06 03:38:19;;;;;;;16.75;7.92;;;;;;;12.66;56.69;100468.89;1718725;83;25714;-50
2021/10/06 03:40:46;;;;;;;13.85;7.67;;;;;;;12.66;56.67;100478.39;1718787;83;25597;-50
2021/10/06 03:43:13;;;;;;;13.45;7.58;;;;;;;12.66;56.73;100474.89;1718747;83;25654;-50
2021/10/06 03:45:39;;;;;;;17.70;7.40;;;;;;;12.65;56.66;100480.88;1701286;83;25718;-51
2021/10/06 03:48:07;;;;;;;17.62;8.15;;;;;;;12.64;56.67;100470.34;1718442;83;27364;-50
2021/10/06 03:50:34;;;;;;;13.40;8.15;;;;;;;12.62;56.71;100473.38;1698539;83;25926;-53
2021/10/06 03:53:03;;;;;;;16.32;7.78;;;;;;;12.62;56.74;100472.02;1719696;83;25657;-53
2021/10/06 03:55:30;;;;;;;16.52;7.90;;;;;;;12.63;56.78;100472.27;1666421;85;25722;-52
2021/10/06 03:57:58;;;;;;;15.70;7.92;;;;;;;12.62;56.68;100474.73;1706392;83;25639;-52
2021/10/06 04:00:26;;;;;;;19.92;7.70;;;;;;;12.61;56.80;100464.19;1664880;85;28173;-50
2021/10/06 04:02:52;;;;;;;13.93;7.58;;;;;;;12.62;56.86;100473.94;1718462;83;25620;-49
2021/10/06 04:05:20;;;;;;;14.70;8.18;;;;;;;12.60;56.74;100468.01;1686384;84;25649;-50
2021/10/06 04:07:47;;;;;;;13.40;7.20;;;;;;;12.61;56.83;100486.69;1718453;83;26339;-50
2021/10/06 04:10:14;;;;;;;12.58;7.80;;;;;;;12.59;56.83;100484.86;1688204;85;25492;-50
2021/10/06 04:12:41;;;;;;;16.23;7.45;;;;;;;12.60;56.81;100484.29;1718506;83;27526;-53
2021/10/06 04:15:09;;;;;;;13.40;8.08;;;;;;;12.58;56.91;100491.95;1718399;83;25649;-50
2021/10/06 04:17:37;;;;;;;14.38;7.95;;;;;;;12.56;57.08;100496.34;1718559;83;25740;-53
2021/10/06 04:20:05;;;;;;;16.02;8.08;;;;;;;12.54;57.14;100489.08;1688178;85;26209;-54
2021/10/06 04:22:31;;;;;;;16.12;7.40;;;;;;;12.52;57.20;100487.25;1718532;83;25547;-54
2021/10/06 04:24:58;;;;;;;22.42;7.78;;;;;;;12.49;57.33;100494.09;1718507;83;28098;-54
2021/10/06 04:27:25;;;;;;;18.77;8.28;;;;;;;12.45;57.53;100494.50;1718460;82;25479;-54
2021/10/06 04:29:51;;;;;;;14.73;8.33;;;;;;;12.44;57.67;100492.09;1688184;85;25535;-54
2021/10/06 04:32:18;;;;;;;17.95;7.58;;;;;;;12.41;57.74;100494.90;1718431;83;25675;-54
2021/10/06 04:34:45;;;;;;;14.78;7.78;;;;;;;12.39;57.84;100491.68;1688198;85;25660;-53
2021/10/06 04:37:11;;;;;;;16.37;8.30;;;;;;;12.35;57.87;100494.00;1718507;83;27331;-54
2021/10/06 04:39:39;;;;;;;16.25;8.60;;;;;;;12.33;57.99;100501.09;1688117;85;25529;-53
2021/10/06 04:42:07;;;;;;;14.85;8.73;;;;;;;12.29;57.97;100504.18;1718507;83;25491;-53
2021/10/06 04:44:34;;;;;;;20.97;8.20;;;;;;;12.27;58.23;100506.41;1689618;84;27733;-53
2021/10/06 04:47:00;;;;;;;19.45;9.18;;;;;;;12.24;58.08;100505.69;1718544;83;25540;-53
2021/10/06 04:49:27;;;;;;;13.88;7.97;;;;;;;12.21;58.00;100510.38;1688244;85;27973;-54
2021/10/06 04:51:53;;;;;;;18.12;8.38;;;;;;;12.20;58.12;100512.86;1717515;82;25531;-51
2021/10/06 04:54:20;;;;;;;13.15;8.13;;;;;;;12.17;58.25;100516.20;1753901;81;25526;-53
2021/10/06 04:56:47;;;;;;;13.45;8.15;;;;;;;12.17;58.37;100520.27;1754164;81;25635;-51
2021/10/06 04:59:13;;;;;;;17.70;8.65;;;;;;;12.15;58.27;100517.86;1754200;81;25459;-53
2021/10/06 05:01:40;;;;;;;17.32;8.18;;;;;;;12.17;58.31;100512.13;1715433;83;27366;-52
2021/10/06 05:04:07;;;;;;;11.97;8.15;;;;;;;12.15;58.34;100524.08;1753737;81;25638;-51
2021/10/06 05:06:34;;;;;;;14.58;8.00;;;;;;;12.15;58.32;100524.64;1724272;81;25617;-52
2021/10/06 05:09:00;;;;;;;19.20;8.60;;;;;;;12.16;58.63;100523.54;1708546;83;25686;-54
2021/10/06 05:11:29;;;;;;;16.30;8.00;;;;;;;12.17;58.35;100527.04;1708093;83;25670;-51
2021/10/06 05:13:58;;;;;;;18.40;9.97;;;;;;;12.17;58.38;100530.55;1708432;83;27330;-52
2021/10/06 05:16:25;;;;;;;14.13;7.93;;;;;;;12.19;58.95;100538.37;1708156;84;25601;-51
2021/10/06 05:18:52;;;;;;;14.13;7.72;;;;;;;12.16;59.14;100546.59;1691023;84;25732;-55
2021/10/06 05:21:19;;;;;;;16.00;9.03;;;;;;;12.14;59.39;100554.24;1715340;83;25696;-55
2021/10/06 05:23:47;;;;;;;18.05;8.40;;;;;;;12.09;59.31;100552.46;1715406;83;25531;-52
2021/10/06 05:26:14;;;;;;;13.83;7.67;;;;;;;12.07;59.54;100551.98;1685185;85;27441;-54
2021/10/06 05:28:40;;;;;;;15.13;8.05;;;;;;;12.06;59.53;100561.22;1715253;83;25580;-54
2021/10/06 05:31:08;;;;;;;18.07;8.23;;;;;;;12.07;59.49;100558.76;1715382;83;25445;-51
2021/10/06 05:33:34;;;;;;;19.82;8.00;;;;;;;12.06;59.44;100563.13;1685109;85;25677;-54
2021/10/06 05:36:03;;;;;;;19.73;9.13;;;;;;;12.07;59.62;100562.00;1715406;83;25471;-52
2021/10/06 05:38:30;;;;;;;12.90;7.83;;;;;;;12.08;59.67;100570.39;1688743;83;27572;-53
2021/10/06 05:40:57;;;;;;;16.15;8.08;;;;;;;12.07;60.22;100581.80;1689934;84;25503;-53
2021/10/06 05:43:24;;;;;;;12.50;7.83;;;;;;;12.07;59.89;100572.84;1713937;83;25481;-54
2021/10/06 05:45:50;;;;;;;14.28;7.78;;;;;;;12.07;59.95;100566.07;1697133;83;25594;-54
2021/10/06 05:48:18;;;;;;;14.87;8.33;;;;;;;12.07;60.32;100580.98;1702402;84;25640;-54
2021/10/06 05:50:44;;;;;;;16.97;8.28;;;;;;;12.05;61.01;100571.80;1707963;84;27357;-53
2021/10/06 05:53:11;;;;;;;20.30;8.85;;;;;;;12.02;61.20;100571.63;1719932;81;25439;-54
2021/10/06 05:55:37;;;;;;;19.27;8.78;;;;;;;11.96;61.51;100575.83;1717945;83;25692;-52
2021/10/06 05:58:04;;;;;;;14.87;8.55;;;;;;;11.92;61.45;100575.43;1712548;83;25726;-55
2021/10/06 06:00:30;;;;;;;13.65;8.53;;;;;;;11.91;61.57;100575.17;1708251;84;25507;-54
2021/10/06 06:02:57;;;;;;;13.45;8.93;;;;;;;11.90;61.37;100579.77;1708224;84;27278;-59
2021/10/06 06:05:23;;;;;;;17.57;8.28;;;;;;;11.92;61.33;100588.98;1708152;84;25692;-60
2021/10/06 06:07:50;;;;;;;13.22;8.15;;;;;;;11.92;61.41;100592.48;1711642;83;25536;-55
2021/10/06 06:10:16;;;;;;;16.15;8.98;;;;;;;11.93;61.13;100592.70;1687586;84;25640;-54
2021/10/06 06:12:44;;;;;;;13.93;8.05;;;;;;;11.97;61.25;100601.05;1708215;84;25439;-54
2021/10/06 06:15:11;;;;;;;13.48;8.05;;;;;;;12.01;61.06;100603.94;1708229;84;27912;-53
2021/10/06 06:17:38;;;;;;;21.97;8.80;;;;;;;12.04;60.94;100606.82;1708120;84;25546;-55
2021/10/06 06:20:12;;;;;;;19.73;9.50;;;;;;;12.08;60.89;100615.12;1708200;84;25630;-52
2021/10/06 06:22:40;;;;;;;20.90;8.30;;;;;;;12.10;60.61;100618.33;1708219;84;25697;-54
2021/10/06 06:25:09;;;;;;;12.68;8.03;;;;;;;12.09;60.49;100609.40;1708249;84;25483;-51
2021/10/06 06:27:36;;;;;;;19.85;8.33;;;;;;;12.11;60.57;100612.59;1708360;84;26953;-51
2021/10/06 06:30:06;;;;;;;17.05;8.03;;;;;;;12.15;60.35;100618.19;1708109;84;25506;-54
2021/10/06 06:32:33;;;;;;;17.05;8.33;;;;;;;12.16;60.45;100614.38;1708213;84;25537;-54
2021/10/06 06:35:00;;;;;;;18.90;8.20;;;;;;;12.19;60.45;100609.70;1708182;84;25659;-53
2021/10/06 06:37:26;;;;;;;16.45;7.58;;;;;;;12.22;60.38;100611.76;1708207;84;25487;-53
2021/10/06 06:39:53;;;;;;;14.78;7.75;;;;;;;12.24;60.25;100615.52;1708155;84;27317;-54
2021/10/06 06:42:20;;;;;;;12.80;7.65;;;;;;;12.27;60.17;100616.25;1708101;84;25624;-52
2021/10/06 06:44:47;;;;;;;16.75;7.60;;;;;;;12.29;60.21;100620.27;1708175;84;25688;-51
2021/10/06 06:47:14;;;;;;;15.38;7.70;;;;;;;12.32;60.17;100626.40;1714007;83;25617;-54
2021/10/06 06:49:41;;;;;;;16.45;8.15;;;;;;;12.36;60.03;100619.00;1717098;83;25651;-54
2021/10/06 06:52:08;;;;;;;17.32;7.85;;;;;;;12.40;60.07;100623.50;1720140;82;27316;-54
2021/10/06 06:54:35;;;;;;;17.23;8.48;;;;;;;12.42;59.94;100622.63;1691691;84;27196;-53
2021/10/06 06:57:02;;;;;;;15.85;8.03;;;;;;;12.46;59.91;100620.08;1718416;83;25703;-54
2021/10/06 06:59:29;;;;;;;16.55;9.00;;;;;;;12.48;59.76;100628.16;1688076;85;26381;-54
2021/10/06 07:01:57;;;;;;;13.00;7.42;;;;;;;12.52;59.69;100626.41;1706209;83;25555;-51
2021/10/06 07:04:25;;;;;;;16.77;8.45;;;;;;;12.56;59.75;100641.50;1686317;84;27337;-54
2021/10/06 07:06:53;;;;;;;16.00;8.45;;;;;;;12.62;59.63;100640.27;1718307;83;25483;-52
2021/10/06 07:09:24;;;;;;;13.20;7.78;;;;;;;12.70;59.68;100642.74;1726250;83;25204;-54
2021/10/06 07:11:49;;;;;;;17.95;8.93;;;;;;;12.77;59.39;100642.29;1751471;81;25663;-54
2021/10/06 07:14:15;;;;;;;19.07;7.37;;;;;;;12.86;59.37;100661.56;1752165;81;25460;-54
2021/10/06 07:16:42;;;;;;;14.63;7.87;;;;;;;12.95;59.14;100656.16;1752108;81;27405;-51
2021/10/06 07:19:09;;;;;;;15.30;7.95;;;;;;;13.03;58.96;100656.73;1752019;81;25715;-51
2021/10/06 07:21:36;;;;;;;12.82;7.78;;;;;;;13.09;59.07;100660.09;1752071;81;25648;-50
2021/10/06 07:24:06;;;;;;;20.15;8.05;;;;;;;13.16;58.71;100661.80;1752105;81;25450;-51
2021/10/06 07:26:32;;;;;;;;;;;;;;;13.20;58.81;100660.05;1754715;81;25499;-52
2021/10/06 07:28:59;;;;;;;15.05;8.28;;;;;;;13.30;58.55;100668.45;1752096;81;27420;-51
2021/10/06 07:31:25;;;;;;;14.13;7.70;;;;;;;13.34;58.51;100668.64;1752027;81;25811;-52
2021/10/06 07:33:53;;;;;;;18.87;8.53;;;;;;;13.42;58.47;100670.58;1718578;83;25607;-54
2021/10/06 07:36:24;;;;;;;13.48;8.20;;;;;;;13.52;58.39;100678.95;1718609;83;25689;-53
2021/10/06 07:38:48;;;;;;;15.25;7.83;;;;;;;13.55;57.92;100668.80;1687874;84;25630;-52
2021/10/06 07:41:15;;;;;;;14.40;7.72;;;;;;;13.62;58.11;100672.66;1718531;83;27369;-52
2021/10/06 07:43:41;;;;;;;15.90;8.10;;;;;;;13.71;57.90;100676.73;1718409;82;25460;-54
2021/10/06 07:46:08;;;;;;;18.37;7.47;;;;;;;13.76;57.69;100678.49;1718564;83;25536;-53
2021/10/06 07:48:35;;;;;;;13.48;7.97;;;;;;;13.83;57.41;100686.95;1688126;85;25680;-54
2021/10/06 07:51:01;;;;;;;14.98;7.97;;;;;;;13.89;57.24;100680.22;1718534;83;25500;-54
2021/10/06 07:53:28;;;;;;;17.27;8.40;;;;;;;14.03;57.25;100688.22;1668576;84;29557;-53
2021/10/06 07:55:55;;;;;;;17.27;7.25;;;;;;;14.16;57.28;100693.22;1731821;82;25645;-54
2021/10/06 07:58:21;;;;;;;10.78;7.83;;;;;;;14.24;56.74;100695.70;1731855;81;25713;-53
2021/10/06 08:00:48;;;;;;;11.55;7.87;;;;;;;14.36;56.49;100698.54;1731701;81;25624;-52
2021/10/06 08:03:15;;;;;;;13.40;8.55;;;;;;;14.43;56.04;100693.96;1731775;82;25644;-54
2021/10/06 08:05:44;;;;;;;15.83;7.70;;;;;;;14.51;56.34;100705.39;1731737;81;27368;-54
2021/10/06 08:08:11;;;;;;;12.43;6.67;;;;;;;14.63;55.88;100709.61;1731816;81;25741;-54
2021/10/06 08:10:39;;;;;;;12.75;7.47;;;;;;;14.65;55.57;100702.48;1731700;82;25604;-54
2021/10/06 08:13:06;;;;;;;13.13;8.30;;;;;;;14.68;55.41;100699.11;1731744;82;25646;-55
2021/10/06 08:15:34;;;;;;;18.42;8.48;;;;;;;14.70;55.29;100709.90;1731752;81;25424;-55
2021/10/06 08:18:02;;;;;;;13.45;8.20;;;;;;;14.70;55.07;100704.45;1731740;82;27397;-53
2021/10/06 08:20:36;;;;;;;11.73;7.58;;;;;;;14.70;54.89;100697.64;1731623;82;25694;-53
2021/10/06 08:23:02;;;;;;;9.65;7.67;;;;;;;14.73;54.92;100699.72;1729911;82;25451;-50
2021/10/06 08:25:31;;;;;;;15.50;7.40;;;;;;;14.75;54.76;100708.93;1731254;82;25670;-50
2021/10/06 08:27:57;;;;;;;18.33;7.80;;;;;;;14.77;54.78;100710.75;1721471;81;25673;-50
2021/10/06 08:30:24;;;;;;;21.25;8.20;;;;;;;14.81;54.43;100710.33;1734743;81;27288;-50
2021/10/06 08:32:51;;;;;;;15.65;7.75;;;;;;;14.81;54.42;100709.53;1688234;82;25541;-50
2021/10/06 08:35:19;;;;;;;12.40;7.70;;;;;;;14.86;54.43;100712.08;1694347;83;25634;-53
2021/10/06 08:37:46;;;;;;;14.20;7.90;;;;;;;14.89;54.39;100714.94;1731278;82;25627;-53
2021/10/06 08:40:14;;;;;;;12.90;7.80;;;;;;;15.02;54.37;100725.38;1690044;82;25534;-54
2021/10/06 08:42:42;;;;;;;10.58;7.15;;;;;;;15.18;54.59;100709.27;1731752;81;27322;-54
2021/10/06 08:45:10;;;;;;;18.15;7.87;;;;;;;15.43;54.90;100710.23;1731769;81;33234;-54
2021/10/06 08:47:40;;;;;;;15.00;7.75;;;;;;;15.74;54.57;100709.60;1731739;82;25691;-55
2021/10/06 08:50:14;;;;;;;16.20;7.83;;;;;;;15.90;53.38;100710.59;1731803;82;26244;-53
2021/10/06 08:52:41;;;;;;;14.10;7.33;;;;;;;16.03;53.21;100706.79;1732292;82;25625;-54
2021/10/06 08:55:10;;;;;;;19.87;8.25;;;;;;;16.30;53.35;100707.33;1728539;82;27332;-55
2021/10/06 08:57:37;;;;;;;13.05;7.67;;;;;;;16.50;52.55;100719.88;1727682;82;25539;-54
2021/10/06 09:00:06;;;;;;;11.93;7.53;;;;;;;16.55;52.18;100716.92;1701710;83;25490;-52
2021/10/06 09:02:42;;;;;;;14.43;7.42;;;;;;;16.61;51.74;100716.37;1723753;83;25670;-55
2021/10/06 09:05:11;;;;;;;13.40;7.08;;;;;;;16.81;51.16;100728.92;1723717;83;25651;-54
2021/10/06 09:08:03;;;;;;;18.12;7.83;;;;;;;17.05;51.78;100720.53;1723738;83;27958;-54
2021/10/06 09:10:35;;;;;;;14.47;8.00;;;;;;;17.41;51.22;100724.36;1702828;83;25656;-55
2021/10/06 09:13:07;;;;;;;13.72;7.83;;;;;;;17.69;49.59;100713.45;1723650;83;25689;-55
2021/10/06 09:15:49;;;;;;;16.52;8.20;;;;;;;17.91;49.47;100725.28;1701602;83;25662;-55
2021/10/06 09:18:25;;;;;;;14.30;8.20;;;;;;;17.99;49.09;100719.41;1723686;83;25687;-54
2021/10/06 09:20:53;;;;;;;15.13;8.10;;;;;;;18.43;49.07;100722.16;1723653;83;27530;-55
2021/10/06 09:23:22;;;;;;;17.27;7.70;;;;;;;18.83;48.66;100725.34;1723571;83;25459;-54
2021/10/06 09:26:00;;;;;;;17.07;7.55;;;;;;;18.92;47.27;100722.42;1723653;83;25525;-54
2021/10/06 09:28:41;;;;;;;13.08;7.12;;;;;;;18.91;47.55;100723.55;1723595;83;25614;-55
2021/10/06 09:31:21;;;;;;;14.98;7.90;;;;;;;18.99;47.21;100730.02;1723656;83;25548;-54
2021/10/06 09:33:55;;;;;;;10.75;7.75;;;;;;;19.14;46.16;100720.19;1723656;83;27972;-56
2021/10/06 09:36:30;;;;;;;18.25;8.23;;;;;;;19.30;45.63;100722.88;1723545;83;25651;-54
2021/10/06 09:39:09;;;;;;;13.90;7.25;;;;;;;19.13;44.92;100733.66;1723628;83;25559;-55
2021/10/06 09:41:46;;;;;;;10.70;7.00;;;;;;;18.89;45.41;100729.19;1723749;83;25628;-55
2021/10/06 09:44:22;;;;;;;12.20;7.20;;;;;;;18.73;46.39;100725.03;1723660;83;25704;-56
2021/10/06 09:47:02;;;;;;;12.53;7.37;;;;;;;19.15;46.52;100731.36;1723676;83;26901;-56
2021/10/06 09:49:36;;;;;;;12.23;7.08;;;;;;;19.38;45.28;100732.28;1723526;83;25721;-55
2021/10/06 09:52:34;;;;;;;13.60;7.85;;;;;;;19.57;45.96;100725.23;1663597;86;25624;-56
2021/10/06 09:55:05;;;;;;;14.50;6.92;;;;;;;20.01;44.81;100739.30;1638053;87;25642;-56
2021/10/06 09:57:39;;;;;;;13.83;7.25;;;;;;;20.32;44.93;100724.57;1659386;86;25553;-55
2021/10/06 10:00:10;;;;;;;11.70;6.80;;;;;;;20.71;43.58;100725.86;1626514;88;27350;-57
2021/10/06 10:02:39;;;;;;;14.95;7.60;;;;;;;20.96;43.34;100730.39;1636864;86;25806;-56
2021/10/06 10:05:08;;;;;;;13.88;7.25;;;;;;;21.19;42.73;100742.70;1626613;88;25610;-56
2021/10/06 10:07:35;;;;;;;13.08;7.25;;;;;;;21.36;41.76;100742.75;1659477;86;26263;-55
2021/10/06 10:10:05;;;;;;;17.90;7.00;;;;;;;21.23;41.24;100733.13;1626415;88;25776;-55
2021/10/06 10:12:33;;;;;;;14.43;7.20;;;;;;;21.27;39.46;100758.16;1659433;86;27509;-56
2021/10/06 10:15:03;;;;;;;11.05;7.08;;;;;;;21.28;40.36;100741.06;1626485;88;25740;-56
2021/10/06 10:17:30;;;;;;;18.85;7.08;;;;;;;21.39;41.45;100735.13;1659344;86;25545;-56
2021/10/06 10:20:01;;;;;;;12.23;6.90;;;;;;;21.51;40.46;100736.90;1626444;88;25749;-56
2021/10/06 10:22:37;;;;;;;16.52;7.53;;;;;;;21.53;39.86;100742.03;1659427;86;25611;-57
2021/10/06 10:25:27;;;;;;;13.35;7.05;;;;;;;21.54;39.73;100732.59;1625397;88;27435;-55
2021/10/06 10:28:15;;;;;;;14.65;7.03;;;;;;;21.34;37.39;100764.94;1659329;86;25629;-55
2021/10/06 10:31:06;;;;;;;15.70;7.60;;;;;;;21.11;39.13;100749.26;1659940;86;25508;-56
2021/10/06 10:33:59;;;;;;;14.80;7.58;;;;;;;21.11;39.68;100722.34;1689152;84;25604;-54
2021/10/06 10:40:36;;;;;;;12.28;7.72;;;;;;;21.55;40.67;100731.44;1606816;89;27352;-56
2021/10/06 10:43:32;;;;;;;10.53;7.62;;;;;;;22.24;40.24;100739.93;1580206;90;25773;-56
2021/10/06 10:49:52;;;;;;;11.97;7.00;;;;;;;22.33;37.98;100746.73;1606791;89;25766;-56
2021/10/06 10:52:40;;;;;;;17.42;7.20;;;;;;;22.11;37.71;100741.55;1606940;89;25751;-55
2021/10/06 10:55:08;;;;;;;14.23;6.80;;;;;;;22.03;38.12;100741.84;1606793;88;29695;-57
2021/10/06 10:57:36;;;;;;;13.53;7.12;;;;;;;22.19;39.19;100745.97;1580224;90;25801;-55
2021/10/06 11:00:05;;;;;;;11.63;7.25;;;;;;;22.62;39.63;100744.84;1606875;89;25665;-55
2021/10/06 11:02:35;;;;;;;16.20;6.97;;;;;;;23.13;39.18;100750.98;1580491;90;25691;-55
2021/10/06 11:05:07;;;;;;;12.10;7.42;;;;;;;23.11;36.64;100756.88;1606887;89;25592;-56
2021/10/06 11:07:50;;;;;;;12.93;6.85;;;;;;;22.75;37.35;100753.03;1586231;89;27412;-55
2021/10/06 11:10:20;;;;;;;17.55;7.60;;;;;;;22.47;37.58;100757.69;1632824;87;25790;-56
2021/10/06 11:13:05;;;;;;;16.55;7.40;;;;;;;22.52;37.33;100742.19;1605503;89;25650;-56
2021/10/06 11:15:28;;;;;;;10.18;6.55;;;;;;;22.34;37.33;100752.45;1631994;87;25724;-57
2021/10/06 11:18:19;;;;;;;15.32;7.15;;;;;;;22.05;37.78;100752.71;1605666;89;25620;-56
2021/10/06 11:20:51;;;;;;;20.85;7.12;;;;;;;21.86;37.91;100739.09;1690208;83;27393;-56
2021/10/06 11:23:36;;;;;;;15.70;7.50;;;;;;;21.68;37.82;100751.28;1758389;81;25622;-56
2021/10/06 11:26:25;;;;;;;17.30;6.85;;;;;;;21.36;38.05;100752.97;1760053;81;25651;-57
2021/10/06 11:28:54;;;;;;;13.58;7.20;;;;;;;21.37;38.84;100753.20;1760111;81;25622;-56
2021/10/06 11:31:27;;;;;;;10.78;6.60;;;;;;;21.35;39.27;100760.45;1760025;81;25526;-56
2021/10/06 11:33:56;;;;;;;14.13;7.20;;;;;;;21.51;39.56;100759.51;1760020;81;28101;-56